sensor_id;sensor_type;location;lat;lon;timestamp;P1;durP1;ratioP1;P2;durP2;ratioP2
74074;SDS011;62428;51.412;5.432;2023-07-24T00:01:55;6.13;;;1.90;;
74074;SDS011;62428;51.412;5.432;2023-07-24T00:04:20;7.63;;;2.93;;
74074;SDS011;62428;51.412;5.432;2023-07-24T00:06:46;4.63;;;2.37;;
74074;SDS011;62428;51.412;5.432;2023-07-24T00:09:11;4.33;;;1.80;;
74074;SDS011;62428;51.412;5.432;2023-07-24T00:11:37;3.95;;;2.13;;
74074;SDS011;62428;51.412;5.432;2023-07-24T00:14:02;4.87;;;1.67;;
74074;SDS011;62428;51.412;5.432;2023-07-24T00:16:27;3.90;;;2.00;;
74074;SDS011;62428;51.412;5.432;2023-07-24T00:18:53;5.83;;;1.67;;
74074;SDS011;62428;51.412;5.432;2023-07-24T00:21:18;4.97;;;1.93;;
74074;SDS011;62428;51.412;5.432;2023-07-24T00:23:43;2.95;;;1.75;;
74074;SDS011;62428;51.412;5.432;2023-07-24T00:26:09;3.80;;;1.87;;
74074;SDS011;62428;51.412;5.432;2023-07-24T00:28:34;5.50;;;2.27;;
74074;SDS011;62428;51.412;5.432;2023-07-24T00:30:59;3.90;;;2.20;;
74074;SDS011;62428;51.412;5.432;2023-07-24T00:33:25;5.27;;;2.20;;
74074;SDS011;62428;51.412;5.432;2023-07-24T00:35:50;3.87;;;2.00;;
74074;SDS011;62428;51.412;5.432;2023-07-24T00:38:19;4.40;;;2.30;;
74074;SDS011;62428;51.412;5.432;2023-07-24T00:40:45;3.53;;;2.20;;
74074;SDS011;62428;51.412;5.432;2023-07-24T00:43:10;6.30;;;2.43;;
74074;SDS011;62428;51.412;5.432;2023-07-24T00:45:35;4.83;;;2.00;;
74074;SDS011;62428;51.412;5.432;2023-07-24T00:48:01;4.22;;;1.92;;
74074;SDS011;62428;51.412;5.432;2023-07-24T00:50:26;7.30;;;1.93;;
74074;SDS011;62428;51.412;5.432;2023-07-24T00:52:53;4.60;;;1.95;;
74074;SDS011;62428;51.412;5.432;2023-07-24T00:55:19;5.82;;;2.22;;
74074;SDS011;62428;51.412;5.432;2023-07-24T00:57:45;3.73;;;1.83;;
74074;SDS011;62428;51.412;5.432;2023-07-24T01:00:10;5.57;;;2.33;;
74074;SDS011;62428;51.412;5.432;2023-07-24T01:02:36;5.78;;;2.30;;
74074;SDS011;62428;51.412;5.432;2023-07-24T01:05:03;6.47;;;2.45;;
74074;SDS011;62428;51.412;5.432;2023-07-24T01:07:29;5.57;;;2.47;;
74074;SDS011;62428;51.412;5.432;2023-07-24T01:09:54;6.65;;;2.28;;
74074;SDS011;62428;51.412;5.432;2023-07-24T01:12:22;5.30;;;2.80;;
74074;SDS011;62428;51.412;5.432;2023-07-24T01:15:06;6.07;;;2.50;;
74074;SDS011;62428;51.412;5.432;2023-07-24T01:17:32;6.22;;;2.65;;
74074;SDS011;62428;51.412;5.432;2023-07-24T01:20:04;7.77;;;2.67;;
74074;SDS011;62428;51.412;5.432;2023-07-24T01:22:44;7.10;;;2.90;;
74074;SDS011;62428;51.412;5.432;2023-07-24T01:25:25;8.23;;;2.72;;
74074;SDS011;62428;51.412;5.432;2023-07-24T01:27:56;8.63;;;3.22;;
74074;SDS011;62428;51.412;5.432;2023-07-24T01:30:21;5.70;;;2.97;;
74074;SDS011;62428;51.412;5.432;2023-07-24T01:32:47;6.43;;;2.80;;
74074;SDS011;62428;51.412;5.432;2023-07-24T01:35:13;8.65;;;3.55;;
74074;SDS011;62428;51.412;5.432;2023-07-24T01:37:39;6.22;;;3.72;;
74074;SDS011;62428;51.412;5.432;2023-07-24T01:40:06;6.40;;;3.10;;
74074;SDS011;62428;51.412;5.432;2023-07-24T01:42:33;5.90;;;3.40;;
74074;SDS011;62428;51.412;5.432;2023-07-24T01:44:59;7.88;;;3.38;;
74074;SDS011;62428;51.412;5.432;2023-07-24T01:47:24;8.20;;;3.10;;
74074;SDS011;62428;51.412;5.432;2023-07-24T01:49:50;8.15;;;3.53;;
74074;SDS011;62428;51.412;5.432;2023-07-24T01:52:16;6.10;;;3.03;;
74074;SDS011;62428;51.412;5.432;2023-07-24T01:54:41;9.13;;;3.47;;
74074;SDS011;62428;51.412;5.432;2023-07-24T01:57:07;6.50;;;2.88;;
74074;SDS011;62428;51.412;5.432;2023-07-24T01:59:32;8.00;;;3.40;;
74074;SDS011;62428;51.412;5.432;2023-07-24T02:01:58;10.53;;;3.10;;
74074;SDS011;62428;51.412;5.432;2023-07-24T02:04:23;6.50;;;3.27;;
74074;SDS011;62428;51.412;5.432;2023-07-24T02:06:49;8.50;;;3.60;;
74074;SDS011;62428;51.412;5.432;2023-07-24T02:09:15;9.38;;;4.30;;
74074;SDS011;62428;51.412;5.432;2023-07-24T02:11:41;8.55;;;3.53;;
74074;SDS011;62428;51.412;5.432;2023-07-24T02:14:06;7.30;;;3.93;;
74074;SDS011;62428;51.412;5.432;2023-07-24T02:16:32;9.67;;;4.37;;
74074;SDS011;62428;51.412;5.432;2023-07-24T02:18:57;11.13;;;4.60;;
74074;SDS011;62428;51.412;5.432;2023-07-24T02:21:22;9.77;;;4.40;;
74074;SDS011;62428;51.412;5.432;2023-07-24T02:23:48;8.03;;;4.37;;
74074;SDS011;62428;51.412;5.432;2023-07-24T02:26:13;20.43;;;5.27;;
74074;SDS011;62428;51.412;5.432;2023-07-24T02:28:39;8.30;;;4.68;;
74074;SDS011;62428;51.412;5.432;2023-07-24T02:31:04;11.30;;;5.10;;
74074;SDS011;62428;51.412;5.432;2023-07-24T02:33:29;10.17;;;4.00;;
74074;SDS011;62428;51.412;5.432;2023-07-24T02:35:55;9.63;;;4.33;;
74074;SDS011;62428;51.412;5.432;2023-07-24T02:38:21;7.35;;;3.88;;
74074;SDS011;62428;51.412;5.432;2023-07-24T02:40:46;6.70;;;3.57;;
74074;SDS011;62428;51.412;5.432;2023-07-24T02:43:12;9.47;;;3.67;;
74074;SDS011;62428;51.412;5.432;2023-07-24T02:45:37;10.57;;;4.10;;
74074;SDS011;62428;51.412;5.432;2023-07-24T02:48:03;8.30;;;3.25;;
74074;SDS011;62428;51.412;5.432;2023-07-24T02:50:28;8.03;;;3.77;;
74074;SDS011;62428;51.412;5.432;2023-07-24T02:52:54;5.78;;;3.13;;
74074;SDS011;62428;51.412;5.432;2023-07-24T02:55:19;5.30;;;2.83;;
74074;SDS011;62428;51.412;5.432;2023-07-24T02:57:45;7.17;;;2.67;;
74074;SDS011;62428;51.412;5.432;2023-07-24T03:00:10;6.30;;;3.20;;
74074;SDS011;62428;51.412;5.432;2023-07-24T03:02:37;7.25;;;3.05;;
74074;SDS011;62428;51.412;5.432;2023-07-24T03:05:03;7.28;;;3.03;;
74074;SDS011;62428;51.412;5.432;2023-07-24T03:07:29;5.30;;;2.63;;
74074;SDS011;62428;51.412;5.432;2023-07-24T03:09:54;3.97;;;2.17;;
74074;SDS011;62428;51.412;5.432;2023-07-24T03:12:19;3.88;;;2.17;;
74074;SDS011;62428;51.412;5.432;2023-07-24T03:14:45;5.63;;;1.70;;
74074;SDS011;62428;51.412;5.432;2023-07-24T03:17:10;3.70;;;1.53;;
74074;SDS011;62428;51.412;5.432;2023-07-24T03:19:36;3.33;;;1.70;;
74074;SDS011;62428;51.412;5.432;2023-07-24T03:22:01;5.83;;;2.30;;
74074;SDS011;62428;51.412;5.432;2023-07-24T03:24:27;5.27;;;2.10;;
74074;SDS011;62428;51.412;5.432;2023-07-24T03:26:53;4.80;;;1.87;;
74074;SDS011;62428;51.412;5.432;2023-07-24T03:29:18;5.13;;;1.58;;
74074;SDS011;62428;51.412;5.432;2023-07-24T03:31:43;4.50;;;1.77;;
74074;SDS011;62428;51.412;5.432;2023-07-24T03:34:09;3.20;;;1.60;;
74074;SDS011;62428;51.412;5.432;2023-07-24T03:36:34;4.27;;;1.57;;
74074;SDS011;62428;51.412;5.432;2023-07-24T03:39:00;3.40;;;1.15;;
74074;SDS011;62428;51.412;5.432;2023-07-24T03:41:26;4.90;;;1.67;;
74074;SDS011;62428;51.412;5.432;2023-07-24T03:43:51;2.63;;;1.20;;
74074;SDS011;62428;51.412;5.432;2023-07-24T03:46:16;4.90;;;1.50;;
74074;SDS011;62428;51.412;5.432;2023-07-24T03:48:42;3.03;;;1.57;;
74074;SDS011;62428;51.412;5.432;2023-07-24T03:51:08;4.37;;;1.67;;
74074;SDS011;62428;51.412;5.432;2023-07-24T03:53:33;3.53;;;1.77;;
74074;SDS011;62428;51.412;5.432;2023-07-24T03:55:59;7.13;;;1.70;;
74074;SDS011;62428;51.412;5.432;2023-07-24T03:58:24;3.87;;;1.47;;
74074;SDS011;62428;51.412;5.432;2023-07-24T04:00:49;5.63;;;1.80;;
74074;SDS011;62428;51.412;5.432;2023-07-24T04:03:15;3.75;;;1.67;;
74074;SDS011;62428;51.412;5.432;2023-07-24T04:05:41;2.83;;;1.50;;
74074;SDS011;62428;51.412;5.432;2023-07-24T04:08:06;5.67;;;1.70;;
74074;SDS011;62428;51.412;5.432;2023-07-24T04:10:31;2.97;;;1.97;;
74074;SDS011;62428;51.412;5.432;2023-07-24T04:12:57;2.53;;;1.50;;
74074;SDS011;62428;51.412;5.432;2023-07-24T04:15:22;3.30;;;1.73;;
74074;SDS011;62428;51.412;5.432;2023-07-24T04:17:48;5.07;;;1.95;;
74074;SDS011;62428;51.412;5.432;2023-07-24T04:20:14;5.72;;;2.08;;
74074;SDS011;62428;51.412;5.432;2023-07-24T04:22:39;5.87;;;1.97;;
74074;SDS011;62428;51.412;5.432;2023-07-24T04:25:05;3.20;;;1.70;;
74074;SDS011;62428;51.412;5.432;2023-07-24T04:27:30;3.33;;;1.83;;
74074;SDS011;62428;51.412;5.432;2023-07-24T04:29:55;9.57;;;2.00;;
74074;SDS011;62428;51.412;5.432;2023-07-24T04:32:21;9.17;;;1.67;;
74074;SDS011;62428;51.412;5.432;2023-07-24T04:34:46;6.53;;;1.83;;
74074;SDS011;62428;51.412;5.432;2023-07-24T04:37:11;4.47;;;1.53;;
74074;SDS011;62428;51.412;5.432;2023-07-24T04:39:40;3.47;;;1.73;;
74074;SDS011;62428;51.412;5.432;2023-07-24T04:42:05;5.05;;;1.65;;
74074;SDS011;62428;51.412;5.432;2023-07-24T04:44:31;3.10;;;2.10;;
74074;SDS011;62428;51.412;5.432;2023-07-24T04:46:57;4.68;;;1.58;;
74074;SDS011;62428;51.412;5.432;2023-07-24T04:49:22;3.57;;;1.60;;
74074;SDS011;62428;51.412;5.432;2023-07-24T04:51:48;4.10;;;1.60;;
74074;SDS011;62428;51.412;5.432;2023-07-24T04:54:13;3.80;;;1.50;;
74074;SDS011;62428;51.412;5.432;2023-07-24T04:56:39;3.77;;;1.90;;
74074;SDS011;62428;51.412;5.432;2023-07-24T04:59:04;8.63;;;1.70;;
74074;SDS011;62428;51.412;5.432;2023-07-24T05:01:29;4.70;;;1.90;;
74074;SDS011;62428;51.412;5.432;2023-07-24T05:03:55;3.50;;;1.97;;
74074;SDS011;62428;51.412;5.432;2023-07-24T05:06:20;2.87;;;1.90;;
74074;SDS011;62428;51.412;5.432;2023-07-24T05:08:45;3.50;;;1.70;;
74074;SDS011;62428;51.412;5.432;2023-07-24T05:11:11;3.10;;;1.90;;
74074;SDS011;62428;51.412;5.432;2023-07-24T05:13:36;2.87;;;1.77;;
74074;SDS011;62428;51.412;5.432;2023-07-24T05:16:02;4.57;;;1.80;;
74074;SDS011;62428;51.412;5.432;2023-07-24T05:18:27;4.05;;;2.35;;
74074;SDS011;62428;51.412;5.432;2023-07-24T05:20:52;4.47;;;2.17;;
74074;SDS011;62428;51.412;5.432;2023-07-24T05:23:18;4.33;;;2.30;;
74074;SDS011;62428;51.412;5.432;2023-07-24T05:25:43;6.03;;;2.93;;
74074;SDS011;62428;51.412;5.432;2023-07-24T05:28:09;3.43;;;2.27;;
74074;SDS011;62428;51.412;5.432;2023-07-24T05:30:34;5.35;;;2.67;;
74074;SDS011;62428;51.412;5.432;2023-07-24T05:33:00;5.87;;;2.50;;
74074;SDS011;62428;51.412;5.432;2023-07-24T05:35:25;4.67;;;2.73;;
74074;SDS011;62428;51.412;5.432;2023-07-24T05:37:51;2.80;;;2.00;;
74074;SDS011;62428;51.412;5.432;2023-07-24T05:40:16;3.80;;;2.17;;
74074;SDS011;62428;51.412;5.432;2023-07-24T05:42:42;3.40;;;2.07;;
74074;SDS011;62428;51.412;5.432;2023-07-24T05:45:08;3.42;;;2.03;;
74074;SDS011;62428;51.412;5.432;2023-07-24T05:47:36;3.63;;;2.13;;
74074;SDS011;62428;51.412;5.432;2023-07-24T05:50:01;4.50;;;2.03;;
74074;SDS011;62428;51.412;5.432;2023-07-24T05:52:27;3.60;;;2.30;;
74074;SDS011;62428;51.412;5.432;2023-07-24T05:54:53;3.13;;;2.07;;
74074;SDS011;62428;51.412;5.432;2023-07-24T05:57:19;4.25;;;1.98;;
74074;SDS011;62428;51.412;5.432;2023-07-24T05:59:44;3.83;;;2.33;;
74074;SDS011;62428;51.412;5.432;2023-07-24T06:02:09;3.70;;;2.50;;
74074;SDS011;62428;51.412;5.432;2023-07-24T06:04:35;5.10;;;3.00;;
74074;SDS011;62428;51.412;5.432;2023-07-24T06:07:01;4.95;;;2.25;;
74074;SDS011;62428;51.412;5.432;2023-07-24T06:09:26;3.40;;;2.20;;
74074;SDS011;62428;51.412;5.432;2023-07-24T06:11:51;3.57;;;2.53;;
74074;SDS011;62428;51.412;5.432;2023-07-24T06:14:17;3.97;;;2.20;;
74074;SDS011;62428;51.412;5.432;2023-07-24T06:16:42;4.03;;;2.33;;
74074;SDS011;62428;51.412;5.432;2023-07-24T06:19:08;5.70;;;2.30;;
74074;SDS011;62428;51.412;5.432;2023-07-24T06:21:33;3.37;;;2.30;;
74074;SDS011;62428;51.412;5.432;2023-07-24T06:23:58;2.13;;;1.63;;
74074;SDS011;62428;51.412;5.432;2023-07-24T06:26:24;3.37;;;1.87;;
74074;SDS011;62428;51.412;5.432;2023-07-24T06:28:49;6.73;;;2.30;;
74074;SDS011;62428;51.412;5.432;2023-07-24T06:31:14;4.60;;;2.10;;
74074;SDS011;62428;51.412;5.432;2023-07-24T06:33:40;3.58;;;2.05;;
74074;SDS011;62428;51.412;5.432;2023-07-24T06:36:08;5.90;;;2.27;;
74074;SDS011;62428;51.412;5.432;2023-07-24T06:38:35;4.87;;;2.23;;
74074;SDS011;62428;51.412;5.432;2023-07-24T06:41:00;4.00;;;2.00;;
74074;SDS011;62428;51.412;5.432;2023-07-24T06:43:25;3.13;;;1.83;;
74074;SDS011;62428;51.412;5.432;2023-07-24T06:45:51;3.43;;;2.07;;
74074;SDS011;62428;51.412;5.432;2023-07-24T06:48:16;3.43;;;1.83;;
74074;SDS011;62428;51.412;5.432;2023-07-24T06:50:41;3.50;;;2.00;;
74074;SDS011;62428;51.412;5.432;2023-07-24T06:53:07;2.77;;;1.77;;
74074;SDS011;62428;51.412;5.432;2023-07-24T06:55:32;4.50;;;2.10;;
74074;SDS011;62428;51.412;5.432;2023-07-24T06:57:57;4.60;;;2.08;;
74074;SDS011;62428;51.412;5.432;2023-07-24T07:00:23;5.30;;;2.40;;
74074;SDS011;62428;51.412;5.432;2023-07-24T07:02:48;2.97;;;2.00;;
74074;SDS011;62428;51.412;5.432;2023-07-24T07:05:13;9.07;;;2.30;;
74074;SDS011;62428;51.412;5.432;2023-07-24T07:07:39;4.83;;;2.07;;
74074;SDS011;62428;51.412;5.432;2023-07-24T07:10:04;4.03;;;1.90;;
74074;SDS011;62428;51.412;5.432;2023-07-24T07:12:30;3.78;;;2.17;;
74074;SDS011;62428;51.412;5.432;2023-07-24T07:14:56;3.27;;;1.83;;
74074;SDS011;62428;51.412;5.432;2023-07-24T07:17:21;3.03;;;2.00;;
74074;SDS011;62428;51.412;5.432;2023-07-24T07:19:46;7.20;;;2.40;;
74074;SDS011;62428;51.412;5.432;2023-07-24T07:22:12;6.35;;;2.22;;
74074;SDS011;62428;51.412;5.432;2023-07-24T07:24:37;4.23;;;2.33;;
74074;SDS011;62428;51.412;5.432;2023-07-24T07:27:02;5.77;;;2.30;;
74074;SDS011;62428;51.412;5.432;2023-07-24T07:29:28;3.83;;;2.30;;
74074;SDS011;62428;51.412;5.432;2023-07-24T07:31:54;6.90;;;2.60;;
74074;SDS011;62428;51.412;5.432;2023-07-24T07:34:19;5.53;;;2.77;;
74074;SDS011;62428;51.412;5.432;2023-07-24T07:36:44;5.93;;;2.50;;
74074;SDS011;62428;51.412;5.432;2023-07-24T07:39:10;4.07;;;1.90;;
74074;SDS011;62428;51.412;5.432;2023-07-24T07:41:35;5.97;;;2.23;;
74074;SDS011;62428;51.412;5.432;2023-07-24T07:44:00;3.37;;;2.17;;
74074;SDS011;62428;51.412;5.432;2023-07-24T07:46:26;3.83;;;2.38;;
74074;SDS011;62428;51.412;5.432;2023-07-24T07:48:51;5.30;;;2.30;;
74074;SDS011;62428;51.412;5.432;2023-07-24T07:51:16;5.03;;;2.80;;
74074;SDS011;62428;51.412;5.432;2023-07-24T07:53:42;3.67;;;2.23;;
74074;SDS011;62428;51.412;5.432;2023-07-24T07:56:07;4.57;;;2.50;;
74074;SDS011;62428;51.412;5.432;2023-07-24T07:58:33;3.73;;;2.40;;
74074;SDS011;62428;51.412;5.432;2023-07-24T08:01:02;5.33;;;3.10;;
74074;SDS011;62428;51.412;5.432;2023-07-24T08:03:28;4.03;;;2.27;;
74074;SDS011;62428;51.412;5.432;2023-07-24T08:05:56;4.27;;;2.10;;
74074;SDS011;62428;51.412;5.432;2023-07-24T08:08:23;5.05;;;2.55;;
74074;SDS011;62428;51.412;5.432;2023-07-24T08:10:48;3.17;;;1.97;;
74074;SDS011;62428;51.412;5.432;2023-07-24T08:13:13;5.13;;;2.60;;
74074;SDS011;62428;51.412;5.432;2023-07-24T08:15:39;5.67;;;2.20;;
74074;SDS011;62428;51.412;5.432;2023-07-24T08:18:04;5.57;;;2.80;;
74074;SDS011;62428;51.412;5.432;2023-07-24T08:20:30;5.20;;;2.30;;
74074;SDS011;62428;51.412;5.432;2023-07-24T08:22:57;6.40;;;2.80;;
74074;SDS011;62428;51.412;5.432;2023-07-24T08:25:22;6.63;;;3.70;;
74074;SDS011;62428;51.412;5.432;2023-07-24T08:27:48;5.20;;;3.03;;
74074;SDS011;62428;51.412;5.432;2023-07-24T08:30:13;6.60;;;3.53;;
74074;SDS011;62428;51.412;5.432;2023-07-24T08:32:39;5.73;;;3.33;;
74074;SDS011;62428;51.412;5.432;2023-07-24T08:35:05;9.15;;;3.33;;
74074;SDS011;62428;51.412;5.432;2023-07-24T08:37:30;5.82;;;3.22;;
74074;SDS011;62428;51.412;5.432;2023-07-24T08:39:56;7.27;;;3.43;;
74074;SDS011;62428;51.412;5.432;2023-07-24T08:42:21;12.27;;;3.73;;
74074;SDS011;62428;51.412;5.432;2023-07-24T08:44:47;8.25;;;3.83;;
74074;SDS011;62428;51.412;5.432;2023-07-24T08:47:14;5.65;;;3.92;;
74074;SDS011;62428;51.412;5.432;2023-07-24T08:49:40;10.27;;;3.77;;
74074;SDS011;62428;51.412;5.432;2023-07-24T08:52:08;7.00;;;3.85;;
74074;SDS011;62428;51.412;5.432;2023-07-24T08:54:37;7.63;;;3.80;;
74074;SDS011;62428;51.412;5.432;2023-07-24T08:57:04;6.35;;;3.58;;
74074;SDS011;62428;51.412;5.432;2023-07-24T08:59:31;5.55;;;3.83;;
74074;SDS011;62428;51.412;5.432;2023-07-24T09:01:57;5.10;;;3.00;;
74074;SDS011;62428;51.412;5.432;2023-07-24T09:04:23;12.23;;;3.70;;
74074;SDS011;62428;51.412;5.432;2023-07-24T09:06:49;5.95;;;3.47;;
74074;SDS011;62428;51.412;5.432;2023-07-24T09:09:15;4.30;;;2.90;;
74074;SDS011;62428;51.412;5.432;2023-07-24T09:11:51;8.50;;;3.10;;
74074;SDS011;62428;51.412;5.432;2023-07-24T09:14:23;4.57;;;3.15;;
74074;SDS011;62428;51.412;5.432;2023-07-24T09:17:01;4.90;;;2.92;;
74074;SDS011;62428;51.412;5.432;2023-07-24T09:19:30;5.28;;;3.20;;
74074;SDS011;62428;51.412;5.432;2023-07-24T09:21:55;4.03;;;2.50;;
74074;SDS011;62428;51.412;5.432;2023-07-24T09:24:21;4.70;;;3.10;;
74074;SDS011;62428;51.412;5.432;2023-07-24T09:26:55;6.23;;;2.93;;
74074;SDS011;62428;51.412;5.432;2023-07-24T09:29:20;6.25;;;2.70;;
74074;SDS011;62428;51.412;5.432;2023-07-24T09:31:46;4.73;;;3.00;;
74074;SDS011;62428;51.412;5.432;2023-07-24T09:34:15;3.50;;;2.60;;
74074;SDS011;62428;51.412;5.432;2023-07-24T09:36:41;5.78;;;2.53;;
74074;SDS011;62428;51.412;5.432;2023-07-24T09:39:07;5.80;;;2.45;;
74074;SDS011;62428;51.412;5.432;2023-07-24T09:41:35;3.90;;;2.60;;
74074;SDS011;62428;51.412;5.432;2023-07-24T09:44:01;4.63;;;2.83;;
74074;SDS011;62428;51.412;5.432;2023-07-24T09:46:26;5.10;;;3.03;;
74074;SDS011;62428;51.412;5.432;2023-07-24T09:48:53;9.70;;;3.35;;
74074;SDS011;62428;51.412;5.432;2023-07-24T09:51:20;6.47;;;3.42;;
74074;SDS011;62428;51.412;5.432;2023-07-24T09:53:55;4.77;;;3.03;;
74074;SDS011;62428;51.412;5.432;2023-07-24T09:56:25;4.55;;;2.90;;
74074;SDS011;62428;51.412;5.432;2023-07-24T09:58:52;5.78;;;3.20;;
74074;SDS011;62428;51.412;5.432;2023-07-24T10:01:21;3.63;;;3.00;;
74074;SDS011;62428;51.412;5.432;2023-07-24T10:03:48;5.27;;;3.23;;
74074;SDS011;62428;51.412;5.432;2023-07-24T10:06:15;9.13;;;4.10;;
74074;SDS011;62428;51.412;5.432;2023-07-24T10:08:42;8.48;;;4.25;;
74074;SDS011;62428;51.412;5.432;2023-07-24T10:11:11;5.88;;;3.22;;
74074;SDS011;62428;51.412;5.432;2023-07-24T10:13:37;7.13;;;3.58;;
74074;SDS011;62428;51.412;5.432;2023-07-24T10:16:04;8.53;;;3.93;;
74074;SDS011;62428;51.412;5.432;2023-07-24T10:18:32;6.90;;;4.15;;
74074;SDS011;62428;51.412;5.432;2023-07-24T10:21:03;7.30;;;3.83;;
74074;SDS011;62428;51.412;5.432;2023-07-24T10:23:29;7.28;;;4.03;;
74074;SDS011;62428;51.412;5.432;2023-07-24T10:25:55;7.53;;;4.40;;
74074;SDS011;62428;51.412;5.432;2023-07-24T10:28:33;7.25;;;4.07;;
74074;SDS011;62428;51.412;5.432;2023-07-24T10:31:03;8.13;;;3.90;;
74074;SDS011;62428;51.412;5.432;2023-07-24T10:33:36;4.80;;;3.25;;
74074;SDS011;62428;51.412;5.432;2023-07-24T10:36:09;5.05;;;3.63;;
74074;SDS011;62428;51.412;5.432;2023-07-24T10:38:42;6.60;;;3.63;;
74074;SDS011;62428;51.412;5.432;2023-07-24T10:41:09;6.90;;;3.58;;
74074;SDS011;62428;51.412;5.432;2023-07-24T10:43:58;8.10;;;3.45;;
74074;SDS011;62428;51.412;5.432;2023-07-24T10:46:34;6.18;;;4.00;;
74074;SDS011;62428;51.412;5.432;2023-07-24T10:49:04;6.47;;;3.90;;
74074;SDS011;62428;51.412;5.432;2023-07-24T10:51:29;6.27;;;4.03;;
74074;SDS011;62428;51.412;5.432;2023-07-24T10:53:59;7.45;;;4.80;;
74074;SDS011;62428;51.412;5.432;2023-07-24T10:56:24;6.30;;;3.17;;
74074;SDS011;62428;51.412;5.432;2023-07-24T10:58:50;4.40;;;3.35;;
74074;SDS011;62428;51.412;5.432;2023-07-24T11:01:15;4.97;;;3.17;;
74074;SDS011;62428;51.412;5.432;2023-07-24T11:03:43;5.30;;;2.90;;
74074;SDS011;62428;51.412;5.432;2023-07-24T11:06:13;4.30;;;2.53;;
74074;SDS011;62428;51.412;5.432;2023-07-24T11:08:40;4.25;;;1.70;;
74074;SDS011;62428;51.412;5.432;2023-07-24T11:11:05;5.10;;;2.13;;
74074;SDS011;62428;51.412;5.432;2023-07-24T11:13:31;2.53;;;1.90;;
74074;SDS011;62428;51.412;5.432;2023-07-24T11:15:57;4.60;;;2.00;;
74074;SDS011;62428;51.412;5.432;2023-07-24T11:18:30;5.13;;;2.33;;
74074;SDS011;62428;51.412;5.432;2023-07-24T11:20:55;4.15;;;2.20;;
74074;SDS011;62428;51.412;5.432;2023-07-24T11:23:22;4.43;;;2.40;;
74074;SDS011;62428;51.412;5.432;2023-07-24T11:25:51;5.68;;;2.85;;
74074;SDS011;62428;51.412;5.432;2023-07-24T11:28:18;4.50;;;3.22;;
74074;SDS011;62428;51.412;5.432;2023-07-24T11:30:43;5.80;;;3.30;;
74074;SDS011;62428;51.412;5.432;2023-07-24T11:33:09;7.13;;;3.60;;
74074;SDS011;62428;51.412;5.432;2023-07-24T11:35:36;6.03;;;4.00;;
74074;SDS011;62428;51.412;5.432;2023-07-24T11:38:04;5.93;;;3.95;;
74074;SDS011;62428;51.412;5.432;2023-07-24T11:40:34;8.50;;;4.28;;
74074;SDS011;62428;51.412;5.432;2023-07-24T11:43:02;7.15;;;4.05;;
74074;SDS011;62428;51.412;5.432;2023-07-24T11:45:29;7.97;;;5.10;;
74074;SDS011;62428;51.412;5.432;2023-07-24T11:47:55;7.83;;;4.90;;
74074;SDS011;62428;51.412;5.432;2023-07-24T11:50:21;8.05;;;4.85;;
74074;SDS011;62428;51.412;5.432;2023-07-24T11:52:48;8.40;;;5.15;;
74074;SDS011;62428;51.412;5.432;2023-07-24T11:55:18;8.57;;;4.75;;
74074;SDS011;62428;51.412;5.432;2023-07-24T11:57:55;6.25;;;4.85;;
74074;SDS011;62428;51.412;5.432;2023-07-24T12:00:22;8.40;;;4.97;;
74074;SDS011;62428;51.412;5.432;2023-07-24T12:02:47;7.28;;;4.60;;
74074;SDS011;62428;51.412;5.432;2023-07-24T12:05:13;8.27;;;5.65;;
74074;SDS011;62428;51.412;5.432;2023-07-24T12:07:39;9.07;;;5.33;;
74074;SDS011;62428;51.412;5.432;2023-07-24T12:10:05;7.60;;;5.10;;
74074;SDS011;62428;51.412;5.432;2023-07-24T12:12:37;7.07;;;5.45;;
74074;SDS011;62428;51.412;5.432;2023-07-24T12:15:08;10.57;;;5.40;;
74074;SDS011;62428;51.412;5.432;2023-07-24T12:17:34;12.05;;;5.32;;
74074;SDS011;62428;51.412;5.432;2023-07-24T12:20:00;6.70;;;4.90;;
74074;SDS011;62428;51.412;5.432;2023-07-24T12:22:27;8.00;;;5.00;;
74074;SDS011;62428;51.412;5.432;2023-07-24T12:24:53;11.37;;;5.27;;
74074;SDS011;62428;51.412;5.432;2023-07-24T12:27:18;6.22;;;4.32;;
74074;SDS011;62428;51.412;5.432;2023-07-24T12:29:43;7.03;;;4.90;;
74074;SDS011;62428;51.412;5.432;2023-07-24T12:32:09;6.00;;;4.50;;
74074;SDS011;62428;51.412;5.432;2023-07-24T12:34:34;7.43;;;5.20;;
74074;SDS011;62428;51.412;5.432;2023-07-24T12:36:59;9.20;;;4.80;;
74074;SDS011;62428;51.412;5.432;2023-07-24T12:39:25;7.37;;;4.47;;
74074;SDS011;62428;51.412;5.432;2023-07-24T12:41:50;5.88;;;4.38;;
74074;SDS011;62428;51.412;5.432;2023-07-24T12:44:15;8.57;;;4.73;;
74074;SDS011;62428;51.412;5.432;2023-07-24T12:46:41;5.80;;;4.40;;
74074;SDS011;62428;51.412;5.432;2023-07-24T12:49:06;8.17;;;5.17;;
74074;SDS011;62428;51.412;5.432;2023-07-24T12:51:32;8.67;;;4.87;;
74074;SDS011;62428;51.412;5.432;2023-07-24T12:53:57;8.38;;;4.65;;
74074;SDS011;62428;51.412;5.432;2023-07-24T12:56:22;8.10;;;5.13;;
74074;SDS011;62428;51.412;5.432;2023-07-24T12:58:48;8.07;;;4.77;;
74074;SDS011;62428;51.412;5.432;2023-07-24T13:01:13;8.80;;;4.73;;
74074;SDS011;62428;51.412;5.432;2023-07-24T13:03:39;6.37;;;4.27;;
74074;SDS011;62428;51.412;5.432;2023-07-24T13:06:04;6.20;;;4.38;;
74074;SDS011;62428;51.412;5.432;2023-07-24T13:08:29;7.23;;;4.10;;
74074;SDS011;62428;51.412;5.432;2023-07-24T13:10:55;7.33;;;4.37;;
74074;SDS011;62428;51.412;5.432;2023-07-24T13:13:20;5.53;;;4.20;;
74074;SDS011;62428;51.412;5.432;2023-07-24T13:15:46;5.70;;;3.57;;
74074;SDS011;62428;51.412;5.432;2023-07-24T13:18:11;8.57;;;4.47;;
74074;SDS011;62428;51.412;5.432;2023-07-24T13:20:39;5.33;;;4.30;;
74074;SDS011;62428;51.412;5.432;2023-07-24T13:23:05;7.85;;;4.78;;
74074;SDS011;62428;51.412;5.432;2023-07-24T13:25:31;8.43;;;5.13;;
74074;SDS011;62428;51.412;5.432;2023-07-24T13:27:56;9.50;;;4.80;;
74074;SDS011;62428;51.412;5.432;2023-07-24T13:30:21;5.53;;;3.90;;
74074;SDS011;62428;51.412;5.432;2023-07-24T13:32:47;9.13;;;4.60;;
74074;SDS011;62428;51.412;5.432;2023-07-24T13:35:15;11.73;;;4.67;;
74074;SDS011;62428;51.412;5.432;2023-07-24T13:37:40;7.53;;;4.18;;
74074;SDS011;62428;51.412;5.432;2023-07-24T13:40:06;5.83;;;4.23;;
74074;SDS011;62428;51.412;5.432;2023-07-24T13:42:32;5.30;;;3.90;;
74074;SDS011;62428;51.412;5.432;2023-07-24T13:44:57;5.27;;;3.90;;
74074;SDS011;62428;51.412;5.432;2023-07-24T13:47:23;5.67;;;4.07;;
74074;SDS011;62428;51.412;5.432;2023-07-24T13:49:48;11.57;;;3.95;;
74074;SDS011;62428;51.412;5.432;2023-07-24T13:52:14;6.03;;;4.17;;
74074;SDS011;62428;51.412;5.432;2023-07-24T13:54:40;10.32;;;4.05;;
74074;SDS011;62428;51.412;5.432;2023-07-24T13:57:05;6.43;;;4.60;;
74074;SDS011;62428;51.412;5.432;2023-07-24T13:59:33;6.60;;;4.22;;
74074;SDS011;62428;51.412;5.432;2023-07-24T14:01:59;6.82;;;3.88;;
74074;SDS011;62428;51.412;5.432;2023-07-24T14:04:24;14.60;;;4.40;;
74074;SDS011;62428;51.412;5.432;2023-07-24T14:06:50;7.30;;;2.87;;
74074;SDS011;62428;51.412;5.432;2023-07-24T14:09:15;8.50;;;3.93;;
74074;SDS011;62428;51.412;5.432;2023-07-24T14:11:40;7.30;;;4.03;;
74074;SDS011;62428;51.412;5.432;2023-07-24T14:14:06;10.20;;;2.97;;
74074;SDS011;62428;51.412;5.432;2023-07-24T14:16:31;7.23;;;2.40;;
74074;SDS011;62428;51.412;5.432;2023-07-24T14:18:56;4.93;;;1.70;;
74074;SDS011;62428;51.412;5.432;2023-07-24T14:21:22;5.13;;;1.30;;
74074;SDS011;62428;51.412;5.432;2023-07-24T14:23:47;4.97;;;1.30;;
74074;SDS011;62428;51.412;5.432;2023-07-24T14:26:12;3.07;;;1.50;;
74074;SDS011;62428;51.412;5.432;2023-07-24T14:28:38;2.87;;;1.47;;
74074;SDS011;62428;51.412;5.432;2023-07-24T14:31:03;3.70;;;1.10;;
74074;SDS011;62428;51.412;5.432;2023-07-24T14:33:30;3.15;;;1.27;;
74074;SDS011;62428;51.412;5.432;2023-07-24T14:35:55;2.87;;;1.40;;
74074;SDS011;62428;51.412;5.432;2023-07-24T14:38:21;2.05;;;1.10;;
74074;SDS011;62428;51.412;5.432;2023-07-24T14:40:46;4.33;;;2.00;;
74074;SDS011;62428;51.412;5.432;2023-07-24T14:43:12;3.47;;;1.63;;